createdAt,value
2023-03-11T00:00:47.304Z,25.88
2023-03-11T00:03:17.695Z,23.55
2023-03-11T00:05:46.259Z,23.42
2023-03-11T00:08:17.686Z,22.55
2023-03-11T00:10:47.256Z,21.48
2023-03-11T00:13:16.399Z,26.35
2023-03-11T00:15:48.874Z,22.52
2023-03-11T00:18:17.497Z,23.42
2023-03-11T00:20:46.981Z,24.73
2023-03-11T00:23:15.147Z,22.17
2023-03-11T00:25:44.749Z,19.35
2023-03-11T00:28:12.342Z,21.35
2023-03-11T00:30:43.644Z,23.63
2023-03-11T00:33:14.241Z,19.85
2023-03-11T00:35:42.388Z,21.08
2023-03-11T00:38:15.294Z,21.65
2023-03-11T00:40:43.494Z,21.17
2023-03-11T00:43:10.862Z,22.02
2023-03-11T00:45:38.034Z,24.75
2023-03-11T00:48:05.906Z,25.63
2023-03-11T00:50:35.920Z,24.67
2023-03-11T00:53:04.405Z,22.27
2023-03-11T00:55:34.341Z,24.30
2023-03-11T00:58:05.880Z,21.80
2023-03-11T01:00:54.431Z,22.33
2023-03-11T01:03:21.664Z,23.17
2023-03-11T01:05:49.306Z,23.13
2023-03-11T01:08:15.991Z,17.90
2023-03-11T01:10:42.678Z,17.90
2023-03-11T01:13:09.836Z,21.52
2023-03-11T01:15:37.630Z,23.33
2023-03-11T01:18:06.311Z,25.60
2023-03-11T01:20:35.476Z,22.58
2023-03-11T01:23:02.205Z,20.42
2023-03-11T01:25:29.482Z,20.00
2023-03-11T01:27:58.486Z,19.50
2023-03-11T01:30:26.872Z,18.65
2023-03-11T01:32:55.195Z,21.13
2023-03-11T01:35:26.858Z,17.77
2023-03-11T01:37:55.887Z,18.92
2023-03-11T01:40:30.977Z,24.23
2023-03-11T01:43:00.775Z,20.70
2023-03-11T01:45:49.661Z,21.30
2023-03-11T01:48:18.857Z,19.83
2023-03-11T01:50:50.037Z,20.48
2023-03-11T01:53:18.169Z,29.48
2023-03-11T01:55:51.336Z,18.60
2023-03-11T01:58:29.324Z,18.88
2023-03-11T02:00:56.834Z,21.17
2023-03-11T02:03:38.554Z,22.55
2023-03-11T02:06:14.379Z,21.00
2023-03-11T02:11:16.211Z,20.85
2023-03-11T02:13:45.251Z,26.65
2023-03-11T02:16:14.040Z,21.88
2023-03-11T02:18:43.085Z,21.30
2023-03-11T02:21:27.077Z,21.80
2023-03-11T02:24:17.320Z,20.30
2023-03-11T02:26:55.412Z,22.17
2023-03-11T02:29:26.074Z,21.45
2023-03-11T02:31:53.429Z,20.52
2023-03-11T02:34:34.338Z,19.90
2023-03-11T02:37:06.971Z,21.92
2023-03-11T02:39:45.663Z,22.35
2023-03-11T02:42:32.352Z,32.35
2023-03-11T02:45:11.376Z,21.30
2023-03-11T02:47:39.569Z,21.05
2023-03-11T02:50:12.752Z,20.27
2023-03-11T02:52:40.296Z,21.65
2023-03-11T02:55:08.759Z,24.50
2023-03-11T02:57:43.056Z,19.40
2023-03-11T03:00:21.066Z,19.08
2023-03-11T03:02:57.100Z,22.75
2023-03-11T03:05:25.385Z,22.73
2023-03-11T03:07:52.697Z,26.15
2023-03-11T03:10:21.530Z,27.25
2023-03-11T03:12:50.084Z,24.05
2023-03-11T03:15:17.441Z,26.15
2023-03-11T03:17:45.757Z,26.60
2023-03-11T03:20:14.225Z,23.10
2023-03-11T03:22:45.681Z,24.83
2023-03-11T03:25:15.711Z,26.13
2023-03-11T03:27:43.946Z,23.92
2023-03-11T03:30:12.221Z,21.63
2023-03-11T03:32:40.056Z,23.73
2023-03-11T03:35:12.573Z,28.48
2023-03-11T03:37:55.068Z,31.00
2023-03-11T03:40:23.017Z,24.90
2023-03-11T03:42:51.632Z,25.02
2023-03-11T03:45:19.814Z,25.55
2023-03-11T03:47:48.182Z,19.30
2023-03-11T03:50:15.029Z,23.48
2023-03-11T03:52:44.915Z,23.75
2023-03-11T03:55:12.087Z,23.75
2023-03-11T03:57:39.229Z,22.20
2023-03-11T04:00:09.632Z,19.83
2023-03-11T04:05:19.682Z,23.25
2023-03-11T04:07:46.586Z,20.45
2023-03-11T04:10:14.671Z,18.35
2023-03-11T04:12:42.633Z,22.83
2023-03-11T04:15:10.060Z,22.90
2023-03-11T04:17:38.758Z,22.08
2023-03-11T04:20:10.339Z,22.02
2023-03-11T04:22:37.418Z,24.65
2023-03-11T04:25:05.612Z,21.20
2023-03-11T04:27:33.209Z,21.92
2023-03-11T04:30:03.153Z,21.00
2023-03-11T04:32:31.142Z,21.45
2023-03-11T04:34:58.884Z,22.63
2023-03-11T04:37:29.882Z,22.08
2023-03-11T04:39:57.416Z,24.85
2023-03-11T04:42:24.901Z,23.25
2023-03-11T04:44:52.450Z,20.20
2023-03-11T04:47:20.236Z,22.40
2023-03-11T04:49:46.978Z,21.63
2023-03-11T04:52:13.875Z,23.20
2023-03-11T04:54:41.144Z,24.38
2023-03-11T04:57:08.349Z,23.60
2023-03-11T04:59:36.062Z,24.55
2023-03-11T05:02:04.112Z,25.45
2023-03-11T05:04:32.024Z,24.48
2023-03-11T05:06:59.310Z,25.00
2023-03-11T05:09:26.570Z,24.58
2023-03-11T05:11:53.621Z,26.23
2023-03-11T05:14:21.354Z,22.75
2023-03-11T05:16:49.524Z,24.27
2023-03-11T05:19:34.558Z,26.02
2023-03-11T05:22:07.845Z,22.38
2023-03-11T05:24:35.043Z,23.65
2023-03-11T05:27:02.659Z,20.80
2023-03-11T05:29:30.023Z,23.00
2023-03-11T05:31:56.962Z,22.77
2023-03-11T05:34:24.166Z,24.80
2023-03-11T05:36:51.124Z,25.52
2023-03-11T05:39:18.217Z,23.98
2023-03-11T05:41:45.295Z,25.77
2023-03-11T05:44:12.054Z,26.85
2023-03-11T05:46:38.886Z,23.52
2023-03-11T05:49:06.838Z,23.45
2023-03-11T05:51:33.748Z,23.10
2023-03-11T05:54:00.713Z,20.42
2023-03-11T05:56:35.980Z,24.50
2023-03-11T05:59:03.414Z,21.65
2023-03-11T06:01:33.774Z,23.73
2023-03-11T06:04:00.967Z,21.40
2023-03-11T06:06:28.372Z,19.65
2023-03-11T06:08:55.901Z,22.65
2023-03-11T06:11:25.784Z,21.17
2023-03-11T06:13:55.204Z,21.27
2023-03-11T06:16:26.079Z,23.10
2023-03-11T06:18:54.673Z,22.65
2023-03-11T06:21:24.183Z,23.50
2023-03-11T06:23:51.255Z,23.38
2023-03-11T06:26:21.128Z,21.15
2023-03-11T06:28:49.509Z,23.90
2023-03-11T06:31:25.180Z,24.65
2023-03-11T06:33:53.921Z,24.98
2023-03-11T06:36:20.845Z,20.40
2023-03-11T06:38:49.311Z,24.08
2023-03-11T06:41:16.885Z,23.90
2023-03-11T06:43:44.073Z,22.75
2023-03-11T06:46:15.181Z,22.30
2023-03-11T06:48:43.614Z,22.15
2023-03-11T06:51:11.203Z,23.58
2023-03-11T06:53:38.984Z,23.65
2023-03-11T06:56:09.629Z,21.00
2023-03-11T06:58:43.202Z,23.00
2023-03-11T07:01:14.806Z,20.60
2023-03-11T07:03:50.489Z,20.95
2023-03-11T07:06:23.235Z,23.40
2023-03-11T07:08:53.371Z,23.45
2023-03-11T07:11:26.702Z,25.67
2023-03-11T07:14:02.137Z,23.23
2023-03-11T07:16:32.429Z,24.27
2023-03-11T07:19:06.448Z,23.30
2023-03-11T07:21:33.720Z,23.90
2023-03-11T07:24:02.806Z,22.83
2023-03-11T07:26:32.122Z,24.83
2023-03-11T07:28:59.663Z,21.75
2023-03-11T07:31:33.200Z,22.65
2023-03-11T07:34:04.385Z,21.48
2023-03-11T07:36:31.319Z,23.65
2023-03-11T07:39:04.333Z,22.75
2023-03-11T07:41:35.009Z,23.40
2023-03-11T07:44:03.349Z,23.73
2023-03-11T07:46:31.688Z,23.98
2023-03-11T07:48:58.989Z,23.65
2023-03-11T07:51:29.892Z,24.45
2023-03-11T07:53:59.157Z,24.08
2023-03-11T07:56:30.276Z,24.42
2023-03-11T07:58:59.833Z,21.50
2023-03-11T08:01:31.544Z,24.13
2023-03-11T08:03:59.263Z,25.77
2023-03-11T08:06:31.160Z,20.88
2023-03-11T08:09:01.561Z,23.38
2023-03-11T08:11:30.378Z,24.38
2023-03-11T08:13:58.016Z,21.38
2023-03-11T08:16:26.251Z,21.67
2023-03-11T08:18:54.406Z,23.17
2023-03-11T08:21:27.216Z,22.95
2023-03-11T08:23:58.847Z,23.10
2023-03-11T08:26:26.281Z,22.88
2023-03-11T08:28:53.081Z,23.30
2023-03-11T08:31:25.367Z,25.52
2023-03-11T08:33:57.756Z,24.63
2023-03-11T08:36:24.787Z,25.67
2023-03-11T08:38:51.748Z,23.85
2023-03-11T08:41:19.285Z,23.83
2023-03-11T08:43:46.250Z,23.90
2023-03-11T08:46:34.897Z,20.98
2023-03-11T08:49:06.867Z,24.30
2023-03-11T08:51:35.608Z,26.35
2023-03-11T08:54:03.296Z,24.38
2023-03-11T08:56:30.147Z,22.83
2023-03-11T08:58:56.910Z,26.13
2023-03-11T09:01:23.947Z,25.52
2023-03-11T09:03:52.904Z,25.40
2023-03-11T09:06:20.257Z,23.55
2023-03-11T09:08:48.699Z,22.50
2023-03-11T09:11:16.956Z,23.95
2023-03-11T09:13:44.818Z,20.10
2023-03-11T09:16:18.217Z,21.90
2023-03-11T09:18:45.220Z,26.45
2023-03-11T09:21:13.094Z,23.02
2023-03-11T09:23:43.637Z,25.63
2023-03-11T09:26:19.344Z,23.73
2023-03-11T09:28:49.213Z,21.73
2023-03-11T09:31:17.060Z,23.60
2023-03-11T09:33:44.506Z,24.67
2023-03-11T09:36:15.664Z,27.17
2023-03-11T09:38:43.115Z,25.20
2023-03-11T09:41:55.291Z,20.60
2023-03-11T09:47:20.019Z,22.63
2023-03-11T09:50:07.024Z,22.73
2023-03-11T09:52:44.709Z,21.48
2023-03-11T09:55:43.154Z,24.27
2023-03-11T09:58:19.929Z,20.23
2023-03-11T10:00:47.478Z,21.75
2023-03-11T10:03:37.381Z,23.83
2023-03-11T10:06:22.061Z,21.63
2023-03-11T10:09:31.075Z,23.42
2023-03-11T10:16:38.820Z,22.92
2023-03-11T10:19:43.278Z,22.02
2023-03-11T10:22:38.078Z,22.90
2023-03-11T10:28:03.414Z,22.30
2023-03-11T10:30:45.376Z,28.43
2023-03-11T10:33:25.826Z,24.00
2023-03-11T10:35:56.472Z,25.35
2023-03-11T10:38:42.810Z,21.77
2023-03-11T10:41:43.244Z,25.88
2023-03-11T10:44:23.926Z,23.90
2023-03-11T10:46:50.656Z,19.42
2023-03-11T10:49:18.749Z,21.95
2023-03-11T10:51:49.876Z,24.50
2023-03-11T10:54:41.662Z,24.90
2023-03-11T10:57:25.499Z,26.42
2023-03-11T10:59:58.340Z,23.23
2023-03-11T11:02:43.567Z,23.38
2023-03-11T11:05:16.278Z,25.30
2023-03-11T11:07:50.473Z,24.10
2023-03-11T11:10:24.722Z,26.15
2023-03-11T11:13:02.584Z,25.73
2023-03-11T11:15:37.493Z,24.77
2023-03-11T11:18:44.726Z,22.48
2023-03-11T11:21:26.768Z,21.20
2023-03-11T11:24:29.417Z,24.80
2023-03-11T11:27:23.316Z,26.63
2023-03-11T11:30:11.215Z,21.60
2023-03-11T11:32:38.450Z,24.65
2023-03-11T11:35:14.062Z,26.92
2023-03-11T11:37:53.858Z,23.90
2023-03-11T11:40:32.977Z,24.05
2023-03-11T11:43:06.964Z,22.77
2023-03-11T11:45:41.165Z,25.17
2023-03-11T11:48:29.475Z,21.73
2023-03-11T11:51:01.132Z,23.27
2023-03-11T11:53:35.234Z,20.30
2023-03-11T11:56:05.920Z,19.20
2023-03-11T11:58:33.129Z,20.23
2023-03-11T12:01:44.315Z,19.00
2023-03-11T12:04:26.426Z,22.13
2023-03-11T12:07:33.431Z,22.83
2023-03-11T12:10:21.701Z,24.67
2023-03-11T12:12:55.854Z,29.70
2023-03-11T12:15:59.971Z,27.17
2023-03-11T12:18:40.975Z,25.30
2023-03-11T12:21:33.848Z,24.10
2023-03-11T12:24:24.803Z,23.30
2023-03-11T12:26:54.190Z,22.92
2023-03-11T12:29:31.001Z,26.95
2023-03-11T12:32:00.779Z,24.92
2023-03-11T12:34:29.857Z,24.30
2023-03-11T12:37:03.275Z,22.63
2023-03-11T12:39:34.180Z,25.48
2023-03-11T12:42:18.871Z,24.27
2023-03-11T12:44:47.305Z,23.70
2023-03-11T12:47:14.013Z,23.88
2023-03-11T12:49:49.825Z,22.77
2023-03-11T12:52:26.298Z,23.45
2023-03-11T12:54:59.085Z,24.77
2023-03-11T12:57:36.958Z,22.58
2023-03-11T13:00:18.181Z,25.00
2023-03-11T13:03:09.705Z,24.17
2023-03-11T13:06:21.901Z,25.42
2023-03-11T13:08:54.731Z,24.92
2023-03-11T13:11:33.739Z,24.65
2023-03-11T13:14:18.154Z,23.90
2023-03-11T13:16:46.488Z,24.85
2023-03-11T13:19:34.501Z,26.48
2023-03-11T13:22:05.270Z,28.17
2023-03-11T13:24:32.078Z,25.65
2023-03-11T13:26:58.689Z,25.52
2023-03-11T13:30:00.932Z,25.75
2023-03-11T13:33:07.701Z,25.77
2023-03-11T13:35:56.061Z,24.30
2023-03-11T13:39:22.393Z,27.30
2023-03-11T13:41:49.817Z,26.35
2023-03-11T13:44:19.160Z,26.23
2023-03-11T13:46:49.824Z,26.88
2023-03-11T13:49:50.864Z,27.73
2023-03-11T13:52:29.191Z,24.20
2023-03-11T13:55:04.196Z,24.83
2023-03-11T13:57:37.734Z,28.23
2023-03-11T14:00:17.815Z,25.90
2023-03-11T14:02:54.760Z,26.58
2023-03-11T14:05:30.897Z,24.10
2023-03-11T14:08:23.366Z,25.55
2023-03-11T14:10:57.859Z,26.02
2023-03-11T14:13:30.733Z,24.33
2023-03-11T14:16:03.716Z,23.70
2023-03-11T14:19:03.958Z,25.17
2023-03-11T14:21:31.844Z,25.27
2023-03-11T14:23:58.647Z,25.10
2023-03-11T14:26:30.211Z,23.98
2023-03-11T14:29:06.927Z,24.58
2023-03-11T14:31:40.914Z,22.45
2023-03-11T14:34:10.762Z,23.55
2023-03-11T14:36:54.301Z,26.90
2023-03-11T14:39:31.509Z,24.00
2023-03-11T14:42:00.218Z,25.15
2023-03-11T14:44:28.813Z,28.20
2023-03-11T14:47:19.766Z,31.92
2023-03-11T14:49:48.952Z,26.88
2023-03-11T14:52:37.230Z,25.05
2023-03-11T14:55:25.935Z,25.67
2023-03-11T14:57:59.494Z,25.60
2023-03-11T15:00:32.628Z,25.02
2023-03-11T15:03:14.004Z,26.65
2023-03-11T15:05:55.097Z,24.77
2023-03-11T15:08:27.458Z,25.02
2023-03-11T15:11:25.257Z,23.20
2023-03-11T15:13:53.497Z,27.45
2023-03-11T15:16:36.843Z,25.23
2023-03-11T15:19:29.163Z,25.85
2023-03-11T15:22:17.144Z,26.90
2023-03-11T15:24:52.273Z,27.38
2023-03-11T15:27:34.001Z,26.15
2023-03-11T15:30:04.875Z,24.35
2023-03-11T15:32:31.554Z,24.83
2023-03-11T15:35:07.388Z,25.92
2023-03-11T15:37:34.996Z,24.52
2023-03-11T15:40:44.033Z,23.80
2023-03-11T15:43:14.848Z,25.55
2023-03-11T15:45:42.841Z,27.25
2023-03-11T15:48:14.119Z,25.10
2023-03-11T15:50:57.064Z,25.27
2023-03-11T15:53:27.390Z,25.20
2023-03-11T15:56:06.373Z,23.23
2023-03-11T15:58:33.884Z,26.17
2023-03-11T16:01:00.595Z,24.50
2023-03-11T16:03:27.507Z,26.27
2023-03-11T16:05:55.080Z,24.60
2023-03-11T16:08:21.904Z,27.02
2023-03-11T16:10:48.594Z,22.60
2023-03-11T16:13:16.093Z,23.50
2023-03-11T16:15:44.925Z,23.90
2023-03-11T16:18:11.859Z,25.88
2023-03-11T16:20:47.227Z,23.88
2023-03-11T16:23:23.200Z,22.52
2023-03-11T16:25:51.271Z,25.58
2023-03-11T16:28:18.056Z,22.98
2023-03-11T16:30:45.165Z,23.38
2023-03-11T16:33:11.909Z,24.05
2023-03-11T16:35:38.875Z,28.50
2023-03-11T16:38:07.954Z,22.85
2023-03-11T16:40:34.785Z,26.63
2023-03-11T16:43:08.082Z,22.65
2023-03-11T16:45:34.827Z,25.45
2023-03-11T16:48:02.700Z,28.08
2023-03-11T16:50:29.811Z,24.08
2023-03-11T16:52:58.273Z,25.42
2023-03-11T16:55:27.527Z,24.45
2023-03-11T16:57:55.980Z,24.00
2023-03-11T17:00:22.924Z,22.63
2023-03-11T17:02:49.622Z,30.75
2023-03-11T17:05:18.695Z,24.95
2023-03-11T17:07:45.434Z,26.27
2023-03-11T17:10:13.090Z,23.17
2023-03-11T17:12:39.922Z,27.25
2023-03-11T17:15:08.132Z,23.20
2023-03-11T17:17:34.853Z,26.17
2023-03-11T17:20:01.701Z,20.98
2023-03-11T17:22:28.503Z,24.30
2023-03-11T17:24:55.268Z,21.98
2023-03-11T17:27:21.935Z,24.90
2023-03-11T17:29:48.707Z,24.05
2023-03-11T17:32:17.605Z,23.27
2023-03-11T17:34:44.675Z,24.38
2023-03-11T17:37:11.459Z,24.58
2023-03-11T17:39:38.185Z,22.70
2023-03-11T17:42:05.196Z,25.42
2023-03-11T17:44:48.622Z,25.02
2023-03-11T17:47:19.623Z,23.80
2023-03-11T17:49:47.712Z,25.67
2023-03-11T17:52:14.536Z,21.63
2023-03-11T17:54:41.234Z,23.67
2023-03-11T17:57:08.111Z,23.55
2023-03-11T17:59:34.934Z,25.67
2023-03-11T18:02:02.169Z,24.15
2023-03-11T18:04:29.385Z,23.45
2023-03-11T18:06:56.759Z,24.48
2023-03-11T18:09:23.520Z,24.10
2023-03-11T18:11:50.270Z,23.73
2023-03-11T18:14:17.005Z,24.52
2023-03-11T18:16:43.800Z,24.35
2023-03-11T18:19:10.663Z,25.85
2023-03-11T18:21:38.804Z,26.77
2023-03-11T18:24:06.501Z,25.08
2023-03-11T18:26:33.360Z,24.75
2023-03-11T18:29:01.225Z,25.77
2023-03-11T18:31:30.567Z,25.85
2023-03-11T18:34:01.710Z,25.55
2023-03-11T18:36:36.401Z,24.08
2023-03-11T18:39:04.923Z,23.30
2023-03-11T18:41:35.166Z,26.85
2023-03-11T18:44:02.024Z,24.70
2023-03-11T18:46:31.899Z,23.58
2023-03-11T18:49:00.950Z,26.42
2023-03-11T18:51:30.217Z,22.67
2023-03-11T18:53:57.341Z,28.38
2023-03-11T18:56:24.184Z,24.30
2023-03-11T18:58:51.040Z,19.13
2023-03-11T19:01:20.505Z,22.02
2023-03-11T19:03:57.322Z,20.90
2023-03-11T19:06:26.166Z,23.98
2023-03-11T19:08:53.672Z,25.92
2023-03-11T19:11:23.051Z,26.30
2023-03-11T19:13:50.409Z,26.95
2023-03-11T19:16:21.530Z,24.55
2023-03-11T19:18:48.903Z,27.13
2023-03-11T19:21:17.376Z,27.15
2023-03-11T19:23:45.469Z,28.20
2023-03-11T19:26:13.276Z,29.98
2023-03-11T19:28:40.133Z,27.33
2023-03-11T19:31:07.060Z,27.02
2023-03-11T19:33:34.239Z,28.75
2023-03-11T19:36:04.728Z,31.73
2023-03-11T19:38:31.770Z,66.07
2023-03-11T19:41:27.986Z,36.83
2023-03-11T19:43:54.899Z,35.88
2023-03-11T19:46:22.341Z,32.20
2023-03-11T19:48:49.504Z,35.20
2023-03-11T19:51:17.375Z,31.85
2023-03-11T19:53:44.723Z,32.47
2023-03-11T19:56:12.110Z,25.95
2023-03-11T19:58:41.074Z,27.17
2023-03-11T20:01:08.083Z,26.80
2023-03-11T20:03:34.877Z,29.50
2023-03-11T20:06:06.467Z,25.40
2023-03-11T20:08:37.757Z,23.67
2023-03-11T20:11:06.074Z,25.20
2023-03-11T20:13:36.504Z,33.22
2023-03-11T20:16:10.926Z,57.10
2023-03-11T20:18:38.191Z,66.72
2023-03-11T20:21:12.613Z,73.47
2023-03-11T20:23:41.298Z,32.83
2023-03-11T20:26:15.546Z,30.08
2023-03-11T20:28:43.269Z,45.28
2023-03-11T20:31:21.848Z,42.20
2023-03-11T20:33:50.716Z,39.55
2023-03-11T20:36:21.935Z,100.18
2023-03-11T20:38:53.527Z,65.85
2023-03-11T20:41:23.165Z,59.40
2023-03-11T20:43:57.322Z,73.20
2023-03-11T20:46:24.636Z,97.20
2023-03-11T20:48:51.799Z,48.08
2023-03-11T20:51:20.601Z,33.05
2023-03-11T20:53:48.160Z,35.05
2023-03-11T20:56:19.927Z,35.25
2023-03-11T20:58:50.944Z,34.05
2023-03-11T21:01:23.282Z,31.63
2023-03-11T21:03:54.072Z,30.27
2023-03-11T21:06:32.049Z,32.15
2023-03-11T21:09:01.934Z,29.60
2023-03-11T21:11:28.920Z,33.63
2023-03-11T21:13:56.290Z,30.20
2023-03-11T21:16:23.990Z,30.58
2023-03-11T21:18:50.945Z,26.30
2023-03-11T21:21:18.779Z,28.23
2023-03-11T21:23:47.580Z,27.77
2023-03-11T21:26:16.997Z,28.88
2023-03-11T21:28:47.221Z,29.98
2023-03-11T21:31:19.252Z,29.67
2023-03-11T21:33:50.125Z,29.73
2023-03-11T21:36:17.654Z,29.00
2023-03-11T21:38:46.966Z,30.58
2023-03-11T21:41:19.128Z,30.15
2023-03-11T21:43:47.509Z,27.67
2023-03-11T21:46:18.512Z,27.33
2023-03-11T21:48:46.787Z,26.25
2023-03-11T21:51:15.612Z,22.90
2023-03-11T21:53:42.950Z,24.77
2023-03-11T21:56:10.041Z,29.25
2023-03-11T21:58:37.104Z,27.52
2023-03-11T22:01:04.323Z,29.98
2023-03-11T22:03:35.368Z,26.85
2023-03-11T22:06:06.793Z,26.00
2023-03-11T22:08:34.301Z,28.20
2023-03-11T22:11:01.617Z,26.25
2023-03-11T22:13:28.559Z,29.35
2023-03-11T22:15:55.510Z,29.25
2023-03-11T22:18:22.297Z,29.05
2023-03-11T22:20:49.114Z,27.00
2023-03-11T22:23:16.013Z,30.25
2023-03-11T22:25:43.247Z,25.85
2023-03-11T22:28:12.881Z,32.30
2023-03-11T22:30:39.807Z,29.45
2023-03-11T22:33:07.382Z,30.00
2023-03-11T22:35:34.611Z,30.45
2023-03-11T22:38:01.893Z,27.30
2023-03-11T22:40:28.760Z,28.80
2023-03-11T22:42:55.583Z,27.15
2023-03-11T22:45:23.107Z,26.52
2023-03-11T22:47:50.667Z,25.98
2023-03-11T22:50:18.721Z,27.98
2023-03-11T22:52:45.868Z,28.55
2023-03-11T22:55:12.715Z,30.70
2023-03-11T22:57:39.540Z,29.27
2023-03-11T23:00:19.309Z,29.13
2023-03-11T23:02:48.475Z,32.05
2023-03-11T23:05:16.113Z,29.80
2023-03-11T23:07:44.077Z,29.38
2023-03-11T23:10:13.682Z,28.45
2023-03-11T23:12:41.501Z,30.63
2023-03-11T23:15:16.762Z,30.30
2023-03-11T23:17:44.032Z,28.80
2023-03-11T23:20:14.597Z,27.58
2023-03-11T23:22:42.586Z,28.42
2023-03-11T23:25:14.521Z,27.48
2023-03-11T23:27:43.620Z,27.70
2023-03-11T23:30:14.155Z,27.63
2023-03-11T23:32:40.887Z,28.67
2023-03-11T23:35:08.328Z,26.83
2023-03-11T23:37:35.150Z,29.13
2023-03-11T23:40:02.183Z,27.85
2023-03-11T23:42:29.206Z,27.90
2023-03-11T23:44:55.953Z,25.65
2023-03-11T23:47:22.693Z,29.52
2023-03-11T23:49:49.446Z,26.25
2023-03-11T23:52:16.280Z,24.88
2023-03-11T23:54:43.075Z,26.60
2023-03-11T23:57:10.039Z,27.13
2023-03-11T23:59:36.854Z,25.10
